Time;durP1;ratioP1;P1;durP2;ratioP2;P2;SDS_P1;SDS_P2;PMS_P1;PMS_P2;Temp;Humidity;BMP_temperature;BMP_pressure;BME280_temperature;BME280_humidity;BME280_pressure;Samples;Min_cycle;Max_cycle;Signal;HPM_P1;HPM_P2
2021/03/04 00:04:54;;;;;;;9.32;6.88;;;17.80;61.80;;;;;;10562452;28;20035;-59
2021/03/04 00:10:01;;;;;;;10.23;8.25;;;17.80;61.80;;;;;;10602203;27;20398;-58
2021/03/04 00:15:04;;;;;;;9.98;7.28;;;17.80;61.80;;;;;;10558768;28;20507;-57
2021/03/04 00:20:21;;;;;;;10.25;7.65;;;17.80;61.80;;;;;;10567846;27;20491;-58
2021/03/04 00:25:33;;;;;;;11.23;7.82;;;17.80;61.70;;;;;;10590218;27;20520;-57
2021/03/04 00:30:41;;;;;;;10.77;7.53;;;17.80;61.70;;;;;;10606699;27;20059;-58
2021/03/04 00:35:44;;;;;;;10.18;7.35;;;17.80;61.70;;;;;;10602546;27;20051;-58
2021/03/04 00:40:48;;;;;;;8.90;7.40;;;17.80;61.60;;;;;;10580937;28;20023;-59
2021/03/04 00:45:49;;;;;;;8.98;6.70;;;17.80;61.60;;;;;;10600303;28;20038;-58
2021/03/04 00:50:56;;;;;;;9.82;6.97;;;17.70;61.50;;;;;;10555775;28;20038;-57
2021/03/04 00:55:59;;;;;;;9.07;7.03;;;17.80;61.60;;;;;;10575871;28;20467;-59
2021/03/04 01:01:05;;;;;;;11.18;8.40;;;17.80;61.60;;;;;;10603727;28;20463;-58
2021/03/04 01:06:06;;;;;;;7.82;6.22;;;17.80;61.50;;;;;;10560823;28;20100;-57
2021/03/04 01:11:07;;;;;;;10.52;8.15;;;17.80;61.40;;;;;;10588203;28;20055;-59
2021/03/04 01:16:11;;;;;;;12.50;7.13;;;17.80;61.40;;;;;;10579399;28;20020;-58
2021/03/04 01:21:14;;;;;;;9.20;6.93;;;17.80;61.30;;;;;;10557493;28;20027;-58
2021/03/04 01:26:15;;;;;;;8.63;7.07;;;17.80;61.30;;;;;;10573647;28;20145;-58
2021/03/04 01:31:27;;;;;;;8.75;6.65;;;17.80;61.30;;;;;;10578407;28;20044;-58
2021/03/04 01:36:28;;;;;;;10.73;6.88;;;17.80;61.20;;;;;;10605569;28;20031;-58
2021/03/04 01:41:29;;;;;;;11.02;7.18;;;17.80;61.20;;;;;;10620137;28;20083;-58
2021/03/04 01:46:36;;;;;;;8.85;6.25;;;17.80;61.20;;;;;;10604007;27;20395;-58
2021/03/04 01:51:38;;;;;;;8.23;6.60;;;17.80;61.10;;;;;;10610721;27;20118;-58
2021/03/04 01:56:39;;;;;;;9.10;6.82;;;17.80;61.10;;;;;;10597890;27;20359;-59
2021/03/04 02:01:41;;;;;;;7.63;6.38;;;17.80;61.10;;;;;;10609738;27;20110;-58
2021/03/04 02:07:06;;;;;;;7.57;5.18;;;17.80;61.00;;;;;;10588096;27;20039;-59
2021/03/04 02:12:23;;;;;;;8.63;5.85;;;17.80;61.00;;;;;;10602642;27;20067;-57
2021/03/04 02:17:35;;;;;;;9.25;7.07;;;17.80;61.00;;;;;;10585380;28;20093;-57
2021/03/04 02:23:17;;;;;;;9.73;6.45;;;17.80;61.00;;;;;;10571195;27;20574;-58
2021/03/04 02:28:24;;;;;;;7.32;5.90;;;17.80;60.90;;;;;;10582030;27;20043;-58
2021/03/04 02:33:35;;;;;;;7.60;5.93;;;17.80;60.90;;;;;;10574452;27;20119;-58
2021/03/04 02:38:37;;;;;;;7.38;6.05;;;17.80;60.90;;;;;;10567180;28;20024;-58
2021/03/04 02:43:43;;;;;;;9.73;6.13;;;17.80;60.90;;;;;;10592985;27;20119;-59
2021/03/04 02:48:47;;;;;;;7.90;5.75;;;17.80;60.80;;;;;;10577934;27;20489;-57
2021/03/04 02:53:55;;;;;;;7.88;5.68;;;17.80;60.80;;;;;;10606913;27;20497;-57
2021/03/04 02:59:08;;;;;;;6.88;6.05;;;17.80;60.80;;;;;;10601172;27;20080;-57
2021/03/04 03:04:17;;;;;;;8.98;6.38;;;17.80;60.80;;;;;;10583000;28;20395;-58
2021/03/04 03:09:28;;;;;;;7.38;5.35;;;17.80;60.70;;;;;;10571428;27;20027;-58
2021/03/04 03:14:32;;;;;;;7.22;5.68;;;17.80;60.70;;;;;;10607061;27;20042;-58
2021/03/04 03:19:34;;;;;;;8.70;6.00;;;17.80;60.70;;;;;;10594572;27;20106;-59
2021/03/04 03:24:38;;;;;;;8.00;6.20;;;17.80;60.60;;;;;;10564201;28;20056;-58
2021/03/04 03:29:39;;;;;;;6.65;4.90;;;17.80;60.70;;;;;;10584295;27;20041;-57
2021/03/04 03:34:45;;;;;;;9.48;6.93;;;17.70;60.60;;;;;;10606638;27;20027;-58
2021/03/04 03:39:50;;;;;;;7.40;5.05;;;17.70;60.60;;;;;;10606290;27;20075;-57
2021/03/04 03:44:53;;;;;;;7.80;5.20;;;17.80;60.60;;;;;;10606509;27;20114;-58
2021/03/04 03:50:01;;;;;;;6.97;5.40;;;17.80;60.50;;;;;;10571856;28;20062;-58
2021/03/04 03:55:13;;;;;;;7.97;5.35;;;17.80;60.50;;;;;;10572189;27;20038;-59
2021/03/04 04:00:23;;;;;;;6.45;5.07;;;17.70;60.50;;;;;;10594492;27;20043;-58
2021/03/04 04:05:25;;;;;;;7.70;5.55;;;17.80;60.50;;;;;;10558525;27;20036;-57
2021/03/04 04:10:32;;;;;;;7.88;4.95;;;17.70;60.40;;;;;;10572131;27;20076;-58
2021/03/04 04:15:38;;;;;;;7.43;5.63;;;17.70;60.40;;;;;;10558553;27;20046;-58
2021/03/04 04:20:42;;;;;;;5.95;4.55;;;17.70;60.40;;;;;;10568022;27;20035;-57
2021/03/04 04:25:54;;;;;;;7.45;5.90;;;17.70;60.40;;;;;;10568999;27;20127;-58
2021/03/04 04:30:58;;;;;;;7.93;5.47;;;17.70;60.30;;;;;;10558452;28;20419;-58
2021/03/04 04:36:05;;;;;;;6.93;4.93;;;17.70;60.30;;;;;;10547945;28;20077;-56
2021/03/04 04:41:09;;;;;;;8.07;5.05;;;17.70;60.50;;;;;;10567497;28;20069;-57
2021/03/04 04:46:10;;;;;;;7.25;5.45;;;17.80;60.60;;;;;;10530258;28;20506;-58
2021/03/04 04:51:12;;;;;;;6.72;4.68;;;17.80;60.50;;;;;;10534643;28;20028;-57
2021/03/04 04:56:13;;;;;;;6.30;4.57;;;17.80;60.50;;;;;;10545606;28;20047;-57
2021/03/04 05:01:14;;;;;;;6.07;4.22;;;17.70;60.50;;;;;;10556203;28;20031;-58
2021/03/04 05:06:14;;;;;;;5.95;4.75;;;17.70;60.50;;;;;;10548549;28;20433;-57
2021/03/04 05:11:16;;;;;;;5.93;4.35;;;17.70;61.10;;;;;;10543301;28;20135;-57
2021/03/04 05:16:17;;;;;;;6.40;4.85;;;17.70;60.40;;;;;;10537971;28;20039;-58
2021/03/04 05:21:17;;;;;;;6.28;3.97;;;17.70;60.40;;;;;;10554149;28;20115;-57
2021/03/04 05:26:18;;;;;;;7.15;5.20;;;17.80;60.40;;;;;;10570032;27;20533;-58
2021/03/04 05:31:19;;;;;;;6.43;4.43;;;17.70;60.40;;;;;;10602472;27;20191;-58
2021/03/04 05:36:19;;;;;;;5.80;4.38;;;17.70;60.40;;;;;;10604224;27;20031;-58
2021/03/04 05:41:22;;;;;;;6.70;4.20;;;17.70;60.40;;;;;;10593872;27;20104;-58
2021/03/04 05:46:23;;;;;;;5.90;4.07;;;17.70;60.40;;;;;;10580769;27;20032;-58
2021/03/04 05:51:35;;;;;;;5.65;4.32;;;17.70;60.40;;;;;;10601894;27;20441;-57
2021/03/04 05:56:39;;;;;;;6.75;4.57;;;17.70;60.30;;;;;;10595058;27;20027;-57
2021/03/04 06:01:42;;;;;;;5.75;3.97;;;17.70;60.30;;;;;;10607885;27;20075;-57
2021/03/04 06:06:43;;;;;;;6.60;4.38;;;17.70;60.30;;;;;;10552353;28;20472;-58
2021/03/04 06:11:43;;;;;;;6.45;4.10;;;17.70;60.30;;;;;;10575438;27;20110;-57
2021/03/04 06:16:44;;;;;;;5.95;4.20;;;17.70;60.30;;;;;;10604753;27;20398;-57
2021/03/04 06:21:55;;;;;;;9.57;4.57;;;17.70;60.30;;;;;;10593011;27;20035;-58
2021/03/04 06:26:56;;;;;;;6.70;4.30;;;17.70;60.70;;;;;;10597775;27;20027;-58
2021/03/04 06:32:06;;;;;;;8.25;4.68;;;17.70;61.10;;;;;;10577648;27;20077;-58
2021/03/04 06:37:07;;;;;;;12.20;4.05;;;17.70;61.80;;;;;;10577889;27;20047;-58
2021/03/04 06:42:08;;;;;;;12.05;5.07;;;17.80;62.30;;;;;;10590360;27;20050;-57
2021/03/04 06:47:11;;;;;;;18.65;5.38;;;17.70;62.40;;;;;;10566713;27;20038;-58
2021/03/04 06:52:32;;;;;;;10.35;4.80;;;17.70;62.40;;;;;;10594387;27;20036;-57
2021/03/04 06:57:33;;;;;;;29.77;5.85;;;17.70;62.30;;;;;;10595856;27;20023;-58
2021/03/04 07:02:34;;;;;;;15.45;6.57;;;17.70;61.90;;;;;;10592465;27;20054;-56
2021/03/04 07:07:35;;;;;;;12.95;6.35;;;17.70;61.30;;;;;;10584079;27;20460;-57
2021/03/04 07:12:37;;;;;;;12.70;7.60;;;17.70;60.90;;;;;;10595758;27;20388;-56
2021/03/04 07:17:38;;;;;;;12.05;5.68;;;17.70;60.90;;;;;;10570378;27;20027;-56
2021/03/04 07:22:44;;;;;;;10.23;6.00;;;17.70;61.00;;;;;;10583979;27;20030;-57
2021/03/04 07:27:45;;;;;;;9.82;6.28;;;17.70;61.00;;;;;;10563420;27;20125;-57
2021/03/04 07:32:45;;;;;;;10.95;6.45;;;17.60;61.10;;;;;;10598733;27;20108;-57
2021/03/04 07:37:47;;;;;;;11.10;6.22;;;17.60;60.90;;;;;;10599613;27;20425;-57
2021/03/04 07:42:47;;;;;;;11.27;4.80;;;17.60;60.80;;;;;;10597866;27;20371;-57
2021/03/04 07:47:48;;;;;;;9.07;5.68;;;17.60;60.70;;;;;;10596606;27;20106;-57
2021/03/04 07:52:49;;;;;;;8.63;5.57;;;17.70;60.60;;;;;;10612437;27;20162;-56
2021/03/04 07:57:50;;;;;;;10.23;6.03;;;17.70;60.60;;;;;;10561379;28;20031;-57
2021/03/04 08:03:01;;;;;;;9.68;4.78;;;17.70;60.50;;;;;;10577629;27;20139;-57
2021/03/04 08:08:13;;;;;;;9.23;5.35;;;17.70;60.40;;;;;;10572693;27;20096;-57
2021/03/04 08:13:14;;;;;;;9.88;4.80;;;17.70;60.30;;;;;;10584960;27;20039;-57
2021/03/04 08:18:24;;;;;;;9.30;5.30;;;17.70;60.30;;;;;;10579288;27;20110;-57
2021/03/04 08:23:25;;;;;;;9.75;5.70;;;17.70;60.30;;;;;;10574159;28;20069;-57
2021/03/04 08:28:28;;;;;;;7.75;4.88;;;17.70;60.20;;;;;;10583571;27;20656;-57
2021/03/04 08:33:29;;;;;;;9.30;5.15;;;17.70;60.10;;;;;;10574420;28;20545;-57
2021/03/04 08:38:40;;;;;;;8.25;4.80;;;17.70;60.00;;;;;;10582158;28;20027;-57
2021/03/04 08:43:41;;;;;;;8.27;5.10;;;17.70;59.80;;;;;;10616802;27;20380;-57
2021/03/04 08:48:47;;;;;;;8.82;4.97;;;17.70;59.70;;;;;;10597904;28;20027;-57
2021/03/04 08:53:47;;;;;;;7.60;5.35;;;17.70;59.50;;;;;;10598121;28;20126;-57
2021/03/04 08:58:48;;;;;;;9.23;4.70;;;17.70;59.50;;;;;;10620104;27;20033;-57
2021/03/04 09:03:49;;;;;;;7.43;4.95;;;17.70;59.40;;;;;;10590835;27;20479;-57
2021/03/04 09:08:50;;;;;;;7.95;4.78;;;17.70;59.30;;;;;;10596707;27;20067;-57
2021/03/04 09:13:51;;;;;;;9.82;5.25;;;17.70;59.40;;;;;;10599716;27;20050;-57
2021/03/04 09:18:52;;;;;;;9.25;4.85;;;17.70;59.40;;;;;;10598771;27;20034;-56
2021/03/04 09:23:53;;;;;;;8.90;4.60;;;17.70;59.40;;;;;;10563500;28;20023;-57
2021/03/04 09:28:54;;;;;;;7.53;5.20;;;17.70;59.40;;;;;;10594266;27;20109;-56
2021/03/04 09:33:57;;;;;;;7.57;4.10;;;17.70;59.40;;;;;;10580891;28;20032;-57
2021/03/04 09:38:58;;;;;;;12.20;4.50;;;17.70;59.40;;;;;;10581051;28;20492;-57
2021/03/04 09:44:04;;;;;;;6.40;4.43;;;17.70;59.50;;;;;;10594412;27;20031;-57
2021/03/04 09:49:16;;;;;;;7.80;5.00;;;17.70;59.50;;;;;;10609441;27;20058;-57
2021/03/04 09:54:26;;;;;;;6.22;4.32;;;17.70;59.50;;;;;;10622548;27;20072;-57
2021/03/04 09:59:27;;;;;;;6.55;4.32;;;17.70;59.50;;;;;;10588545;27;20160;-57
2021/03/04 10:04:28;;;;;;;6.15;4.85;;;17.70;59.50;;;;;;10588662;27;20616;-57
2021/03/04 10:09:28;;;;;;;7.13;4.72;;;17.70;59.50;;;;;;10579714;28;20036;-55
2021/03/04 10:14:29;;;;;;;6.25;4.22;;;17.70;59.50;;;;;;10560972;28;20028;-57
2021/03/04 10:19:29;;;;;;;6.03;4.28;;;17.80;60.10;;;;;;10579175;28;20106;-56
2021/03/04 10:24:30;;;;;;;7.07;4.63;;;17.70;59.50;;;;;;10606548;27;20114;-57
2021/03/04 10:29:34;;;;;;;5.55;3.35;;;17.80;59.50;;;;;;10560618;28;20559;-57
2021/03/04 10:34:35;;;;;;;6.70;4.20;;;17.70;59.40;;;;;;10578536;28;20036;-57
2021/03/04 10:39:36;;;;;;;6.25;3.78;;;17.70;59.50;;;;;;10578622;28;20054;-57
2021/03/04 10:44:38;;;;;;;6.30;3.50;;;17.70;59.50;;;;;;10578131;28;20107;-57
2021/03/04 10:49:38;;;;;;;6.85;4.13;;;17.70;59.40;;;;;;10577969;28;20471;-57
2021/03/04 10:54:39;;;;;;;5.10;3.08;;;17.70;59.40;;;;;;10559041;28;20115;-57
2021/03/04 10:59:40;;;;;;;4.57;3.53;;;17.80;59.40;;;;;;10581420;27;20535;-57
2021/03/04 11:04:40;;;;;;;6.65;3.95;;;17.80;59.40;;;;;;10620275;27;20039;-56
2021/03/04 11:09:41;;;;;;;5.28;3.63;;;17.70;60.00;;;;;;10619789;27;20471;-57
2021/03/04 11:14:42;;;;;;;4.88;3.50;;;17.80;59.40;;;;;;10619702;27;20436;-57
2021/03/04 11:19:42;;;;;;;5.88;3.20;;;17.80;59.40;;;;;;10604574;27;20028;-57
2021/03/04 11:24:47;;;;;;;5.97;2.92;;;17.70;59.40;;;;;;10558759;27;20097;-57
2021/03/04 11:29:47;;;;;;;5.07;3.05;;;17.70;59.60;;;;;;10603973;27;20460;-56
2021/03/04 11:34:48;;;;;;;5.13;2.95;;;17.70;59.90;;;;;;10607139;27;20032;-56
2021/03/04 11:39:49;;;;;;;7.43;3.95;;;17.80;60.10;;;;;;10597167;27;20107;-54
2021/03/04 11:44:50;;;;;;;5.07;3.30;;;17.70;60.00;;;;;;10589338;27;20030;-57
2021/03/04 11:49:52;;;;;;;4.07;2.75;;;17.80;60.20;;;;;;10595523;27;20047;-57
2021/03/04 11:54:53;;;;;;;5.70;3.05;;;17.80;60.00;;;;;;10581397;27;20031;-56
2021/03/04 11:59:56;;;;;;;7.15;3.33;;;17.80;60.10;;;;;;10582578;27;20034;-56
2021/03/04 12:04:57;;;;;;;6.38;2.90;;;17.70;59.60;;;;;;10582897;27;20402;-55
2021/03/04 12:09:58;;;;;;;4.78;2.55;;;17.70;59.50;;;;;;10574743;28;20056;-55
2021/03/04 12:14:59;;;;;;;4.57;3.05;;;17.70;59.40;;;;;;10556425;28;20437;-56
2021/03/04 12:20:00;;;;;;;5.00;3.20;;;17.70;59.40;;;;;;10558616;27;20028;-56
2021/03/04 12:25:03;;;;;;;4.85;3.13;;;17.70;59.30;;;;;;10613824;27;20750;-55
2021/03/04 12:30:05;;;;;;;5.20;2.60;;;17.70;59.20;;;;;;10573215;28;20051;-54
2021/03/04 12:35:07;;;;;;;3.83;2.33;;;17.70;59.20;;;;;;10574571;28;20032;-56
2021/03/04 12:40:09;;;;;;;5.32;2.78;;;17.70;59.20;;;;;;10573818;28;20484;-55
2021/03/04 12:45:10;;;;;;;4.20;2.60;;;17.70;59.10;;;;;;10573681;28;20097;-55
2021/03/04 12:50:12;;;;;;;4.07;2.65;;;17.70;59.10;;;;;;10555455;28;20068;-56
2021/03/04 12:55:13;;;;;;;4.93;2.85;;;17.70;59.10;;;;;;10573629;28;20039;-56
2021/03/04 13:00:16;;;;;;;3.67;2.70;;;17.70;59.00;;;;;;10573630;28;20479;-55
2021/03/04 13:05:17;;;;;;;4.68;2.55;;;17.70;58.90;;;;;;10563637;28;20035;-56
2021/03/04 13:10:18;;;;;;;4.78;2.50;;;17.70;59.00;;;;;;10557476;28;20449;-55
2021/03/04 13:15:18;;;;;;;3.10;1.85;;;17.70;58.90;;;;;;10586714;28;20038;-56
2021/03/04 13:20:20;;;;;;;4.35;2.35;;;17.70;58.90;;;;;;10598501;28;20031;-55
2021/03/04 13:25:20;;;;;;;3.60;2.17;;;17.70;58.90;;;;;;10582553;28;20051;-56
2021/03/04 13:30:21;;;;;;;4.00;2.20;;;17.70;58.80;;;;;;10584807;28;20200;-55
2021/03/04 13:35:23;;;;;;;3.10;2.30;;;17.70;58.60;;;;;;10580551;28;20043;-55
2021/03/04 13:40:23;;;;;;;3.22;2.08;;;17.70;58.60;;;;;;10611746;28;20477;-56
2021/03/04 13:45:24;;;;;;;3.08;1.80;;;17.70;58.60;;;;;;10611153;27;20031;-55
2021/03/04 13:50:25;;;;;;;3.45;1.90;;;17.70;58.50;;;;;;10622985;27;20039;-56
2021/03/04 13:55:26;;;;;;;4.25;2.53;;;17.70;58.50;;;;;;10620704;27;20050;-55
2021/03/04 14:00:26;;;;;;;4.18;1.90;;;17.70;58.40;;;;;;10544828;28;20027;-56
2021/03/04 14:05:27;;;;;;;4.22;2.40;;;17.80;58.40;;;;;;10586921;27;20031;-56
2021/03/04 14:10:28;;;;;;;2.63;1.70;;;17.70;58.30;;;;;;10579430;28;20042;-56
2021/03/04 14:15:29;;;;;;;3.47;2.10;;;17.70;58.30;;;;;;10579295;28;20119;-56
2021/03/04 14:20:30;;;;;;;2.83;1.75;;;17.70;58.30;;;;;;10579002;28;20389;-56
2021/03/04 14:25:31;;;;;;;2.67;1.55;;;17.80;58.30;;;;;;10590385;27;20112;-56
2021/03/04 14:30:32;;;;;;;2.80;1.67;;;17.70;58.20;;;;;;10578759;28;20457;-56
2021/03/04 14:35:33;;;;;;;3.72;2.10;;;17.80;58.20;;;;;;10581038;27;20492;-56
2021/03/04 14:40:34;;;;;;;2.50;1.27;;;17.80;58.20;;;;;;10578556;28;20115;-56
2021/03/04 14:45:34;;;;;;;2.42;1.48;;;17.70;58.20;;;;;;10578011;28;20047;-56
2021/03/04 14:50:35;;;;;;;2.42;1.52;;;17.80;58.20;;;;;;10607773;27;20035;-55
2021/03/04 14:55:36;;;;;;;2.58;1.65;;;17.80;58.20;;;;;;10600712;27;20035;-56
2021/03/04 15:00:37;;;;;;;2.10;1.48;;;17.70;58.10;;;;;;10617033;27;20365;-56
2021/03/04 15:05:38;;;;;;;3.40;1.42;;;17.80;58.20;;;;;;10565641;27;20035;-56
2021/03/04 15:10:38;;;;;;;3.72;1.70;;;17.70;58.10;;;;;;10577402;28;20403;-56
2021/03/04 15:15:39;;;;;;;1.70;1.20;;;17.80;58.10;;;;;;10576832;28;20127;-55
2021/03/04 15:20:40;;;;;;;2.28;1.35;;;17.80;58.00;;;;;;10576673;28;20039;-54
2021/03/04 15:25:40;;;;;;;2.47;1.50;;;17.80;58.70;;;;;;10576429;28;20035;-55
2021/03/04 15:30:41;;;;;;;2.55;1.38;;;17.80;58.10;;;;;;10564100;28;20164;-56
2021/03/04 15:35:42;;;;;;;2.92;1.52;;;17.80;58.00;;;;;;10579267;27;20054;-56
2021/03/04 15:40:43;;;;;;;2.13;1.20;;;17.80;58.00;;;;;;10608767;27;20028;-55
2021/03/04 15:45:43;;;;;;;2.92;1.65;;;17.80;58.00;;;;;;10564208;28;20031;-55
2021/03/04 15:50:44;;;;;;;2.38;1.17;;;17.80;58.00;;;;;;10557204;28;20061;-56
2021/03/04 15:55:45;;;;;;;2.38;1.13;;;17.80;58.00;;;;;;10576904;27;20036;-56
2021/03/04 16:00:45;;;;;;;2.33;1.20;;;17.80;58.00;;;;;;10588059;27;20019;-56
2021/03/04 16:05:46;;;;;;;3.45;1.75;;;17.70;57.90;;;;;;10590053;27;20088;-56
2021/03/04 16:10:47;;;;;;;3.15;1.50;;;17.70;57.90;;;;;;10574848;28;20034;-56
2021/03/04 16:15:48;;;;;;;2.28;1.35;;;17.80;57.90;;;;;;10574621;28;20467;-56
2021/03/04 16:20:49;;;;;;;2.55;1.20;;;17.70;57.90;;;;;;10574469;28;20027;-55
2021/03/04 16:25:50;;;;;;;1.73;0.90;;;17.70;57.90;;;;;;10577940;27;20035;-56
2021/03/04 16:30:51;;;;;;;3.63;1.10;;;17.80;57.90;;;;;;10594216;27;20039;-55
2021/03/04 16:35:52;;;;;;;3.05;1.27;;;17.80;57.80;;;;;;10602764;27;20482;-56
2021/03/04 16:40:53;;;;;;;4.05;1.23;;;17.80;58.00;;;;;;10582763;28;20120;-56
2021/03/04 16:45:53;;;;;;;1.85;0.98;;;17.70;58.00;;;;;;10573447;28;20118;-56
2021/03/04 16:50:54;;;;;;;3.22;1.05;;;17.80;57.80;;;;;;10602019;28;20031;-56
2021/03/04 16:55:55;;;;;;;4.40;1.13;;;17.80;57.80;;;;;;10609280;28;20123;-55
2021/03/04 17:00:55;;;;;;;6.53;1.45;;;17.80;57.90;;;;;;10585001;28;20120;-58
2021/03/04 17:05:56;;;;;;;8.25;1.90;;;17.70;57.90;;;;;;10613109;28;20066;-57
2021/03/04 17:10:57;;;;;;;8.43;1.63;;;17.70;59.30;;;;;;10604048;28;20119;-57
2021/03/04 17:15:58;;;;;;;18.20;2.33;;;17.70;61.00;;;;;;10586376;28;20155;-57
2021/03/04 17:21:00;;;;;;;16.48;2.05;;;17.80;61.50;;;;;;10615975;27;20138;-57
2021/03/04 17:26:01;;;;;;;5.88;1.70;;;17.80;61.40;;;;;;10577066;27;20080;-57
2021/03/04 17:31:02;;;;;;;8.75;2.03;;;17.80;61.10;;;;;;10599751;27;20568;-57
2021/03/04 17:36:03;;;;;;;7.97;2.35;;;17.80;61.30;;;;;;10607160;27;20045;-56
2021/03/04 17:41:07;;;;;;;5.93;1.88;;;17.80;61.40;;;;;;10608121;27;20374;-56
2021/03/04 17:46:07;;;;;;;14.07;2.13;;;17.70;61.90;;;;;;10595013;27;20063;-56
2021/03/04 17:51:08;;;;;;;6.63;1.92;;;17.70;62.00;;;;;;10596644;27;20114;-56
2021/03/04 17:56:08;;;;;;;6.60;1.40;;;17.70;61.60;;;;;;10586664;27;20111;-56
2021/03/04 18:01:09;;;;;;;6.25;1.27;;;17.70;61.60;;;;;;10596563;27;20483;-57
2021/03/04 18:06:10;;;;;;;9.73;1.75;;;17.70;61.50;;;;;;10592007;27;20399;-57
2021/03/04 18:11:11;;;;;;;5.70;1.75;;;17.60;61.50;;;;;;10594223;27;20022;-58
2021/03/04 18:16:13;;;;;;;6.18;1.45;;;17.60;61.40;;;;;;10594834;27;20031;-58
2021/03/04 18:21:14;;;;;;;12.88;4.03;;;17.50;61.30;;;;;;10580600;27;20118;-59
2021/03/04 18:26:14;;;;;;;11.30;3.65;;;17.60;62.70;;;;;;10587114;27;20434;-59
2021/03/04 18:31:16;;;;;;;10.90;3.80;;;17.60;62.90;;;;;;10595108;27;20566;-60
2021/03/04 18:36:18;;;;;;;8.80;2.67;;;17.70;64.10;;;;;;10590025;27;20042;-58
2021/03/04 18:41:19;;;;;;;9.13;2.75;;;17.70;63.90;;;;;;10590760;27;20503;-60
2021/03/04 18:46:21;;;;;;;9.77;2.72;;;17.70;64.50;;;;;;10593796;27;20038;-59
2021/03/04 18:51:21;;;;;;;11.63;3.05;;;17.70;64.10;;;;;;10570459;27;20027;-59
2021/03/04 18:56:22;;;;;;;6.85;2.15;;;17.70;64.10;;;;;;10598313;27;20032;-55
2021/03/04 19:01:23;;;;;;;9.73;2.47;;;17.70;64.00;;;;;;10604430;27;20050;-58
2021/03/04 19:06:24;;;;;;;13.40;2.97;;;17.60;63.40;;;;;;10584859;27;20042;-57
2021/03/04 19:11:25;;;;;;;13.02;2.83;;;17.60;62.90;;;;;;10570931;27;20049;-57
2021/03/04 19:16:26;;;;;;;6.00;1.80;;;17.60;62.90;;;;;;10608954;27;20031;-56
2021/03/04 19:21:27;;;;;;;9.48;2.58;;;17.60;62.90;;;;;;10603680;27;20494;-57
2021/03/04 19:26:27;;;;;;;4.50;2.20;;;17.60;63.50;;;;;;10597555;27;20077;-57
2021/03/04 19:31:28;;;;;;;8.15;2.35;;;17.70;63.00;;;;;;10601640;27;20085;-56
2021/03/04 19:36:29;;;;;;;7.53;1.30;;;17.80;64.10;;;;;;10603649;27;20122;-58
2021/03/04 19:41:32;;;;;;;5.25;2.10;;;17.90;64.20;;;;;;10589874;27;20031;-58
2021/03/04 19:46:32;;;;;;;5.85;1.92;;;17.90;64.30;;;;;;10600285;27;20589;-56
2021/03/04 19:51:33;;;;;;;6.72;2.70;;;17.90;64.30;;;;;;10605341;27;20173;-57
2021/03/04 19:56:33;;;;;;;7.72;2.20;;;17.90;64.20;;;;;;10597777;27;20456;-57
2021/03/04 20:01:34;;;;;;;10.13;2.58;;;17.90;64.20;;;;;;10596991;27;20055;-57
2021/03/04 20:06:35;;;;;;;6.70;2.08;;;18.00;64.00;;;;;;10581496;27;20047;-57
2021/03/04 20:11:36;;;;;;;9.82;2.17;;;18.00;64.10;;;;;;10586964;27;20046;-57
2021/03/04 20:16:37;;;;;;;4.40;1.65;;;17.90;64.20;;;;;;10582863;27;20096;-56
2021/03/04 20:21:38;;;;;;;4.28;1.90;;;17.80;64.20;;;;;;10580436;27;20031;-58
2021/03/04 20:26:39;;;;;;;4.55;1.95;;;17.80;64.30;;;;;;10594229;27;20511;-57
2021/03/04 20:31:44;;;;;;;5.82;1.95;;;17.80;64.30;;;;;;10594909;27;20055;-56
2021/03/04 20:36:45;;;;;;;7.60;2.08;;;17.80;64.10;;;;;;10597672;27;20084;-57
2021/03/04 20:41:46;;;;;;;4.45;2.00;;;17.80;64.30;;;;;;10595242;27;20034;-57
2021/03/04 20:46:47;;;;;;;12.95;1.90;;;17.80;65.10;;;;;;10556862;27;20453;-56
2021/03/04 20:51:48;;;;;;;8.20;2.83;;;17.80;64.70;;;;;;10588547;28;20482;-57
2021/03/04 20:56:49;;;;;;;7.75;2.67;;;17.80;64.70;;;;;;10573767;28;20020;-56
2021/03/04 21:01:50;;;;;;;4.93;1.70;;;17.80;64.50;;;;;;10577018;28;20118;-57
2021/03/04 21:06:50;;;;;;;5.75;1.50;;;17.70;64.30;;;;;;10573269;28;20114;-57
2021/03/04 21:11:51;;;;;;;6.28;2.05;;;17.70;64.30;;;;;;10580548;28;20035;-56
2021/03/04 21:16:52;;;;;;;6.88;1.98;;;17.60;64.20;;;;;;10600530;28;20039;-57
2021/03/04 21:21:54;;;;;;;6.35;2.10;;;17.60;64.10;;;;;;10581120;28;20037;-56
2021/03/04 21:26:55;;;;;;;4.05;1.70;;;17.60;64.00;;;;;;10590287;28;20411;-56
2021/03/04 21:31:56;;;;;;;5.13;1.60;;;17.60;63.80;;;;;;10554781;28;20126;-56
2021/03/04 21:36:56;;;;;;;4.72;1.77;;;17.60;63.60;;;;;;10578374;28;20437;-56
2021/03/04 21:41:58;;;;;;;3.40;1.73;;;17.70;63.20;;;;;;10594596;28;20114;-56
2021/03/04 21:46:59;;;;;;;2.88;1.75;;;17.70;63.00;;;;;;10577421;28;20105;-56
2021/03/04 21:52:00;;;;;;;4.88;1.75;;;17.70;63.00;;;;;;10592953;28;20544;-56
2021/03/04 21:57:01;;;;;;;3.17;1.13;;;17.70;62.80;;;;;;10593358;28;20035;-57
2021/03/04 22:02:02;;;;;;;3.05;1.30;;;17.70;62.70;;;;;;10543974;28;20380;-57
2021/03/04 22:07:04;;;;;;;2.83;1.50;;;17.70;62.60;;;;;;10586802;28;20138;-57
2021/03/04 22:12:05;;;;;;;5.07;1.40;;;17.70;62.50;;;;;;10606596;27;20043;-57
2021/03/04 22:17:06;;;;;;;7.30;1.50;;;17.70;62.40;;;;;;10627231;27;20036;-57
2021/03/04 22:22:07;;;;;;;3.17;1.10;;;17.70;62.30;;;;;;10617253;27;20467;-57
2021/03/04 22:27:08;;;;;;;2.17;1.00;;;17.70;62.30;;;;;;10624859;27;20027;-57
2021/03/04 22:32:09;;;;;;;3.13;1.23;;;17.70;62.20;;;;;;10592271;27;20539;-56
2021/03/04 22:37:12;;;;;;;3.40;1.10;;;17.70;62.10;;;;;;10592548;27;20031;-55
2021/03/04 22:42:14;;;;;;;3.78;1.35;;;17.70;62.00;;;;;;10585197;28;20047;-56
2021/03/04 22:47:14;;;;;;;3.08;1.15;;;17.70;62.00;;;;;;10599644;27;20063;-57
2021/03/04 22:52:15;;;;;;;2.92;1.42;;;17.70;61.90;;;;;;10591366;27;20060;-56
2021/03/04 22:57:16;;;;;;;3.72;1.40;;;17.70;61.80;;;;;;10616045;27;20031;-56
2021/03/04 23:02:17;;;;;;;2.55;1.15;;;17.70;61.70;;;;;;10606794;27;20019;-56
2021/03/04 23:07:18;;;;;;;2.45;0.75;;;17.70;61.60;;;;;;10616219;27;20132;-56
2021/03/04 23:12:19;;;;;;;4.45;1.08;;;17.70;61.50;;;;;;10565089;28;20388;-55
2021/03/04 23:17:20;;;;;;;3.50;1.05;;;17.70;61.50;;;;;;10619979;27;20034;-56
2021/03/04 23:22:20;;;;;;;3.83;1.30;;;17.70;61.30;;;;;;10624859;27;20027;-56
2021/03/04 23:27:24;;;;;;;2.00;0.80;;;17.70;61.30;;;;;;10589681;27;20027;-56
2021/03/04 23:32:25;;;;;;;1.80;0.80;;;17.70;61.20;;;;;;10605393;27;20076;-57
2021/03/04 23:37:26;;;;;;;2.95;1.20;;;17.70;61.20;;;;;;10587640;27;20372;-57
2021/03/04 23:42:27;;;;;;;2.08;0.70;;;17.70;61.20;;;;;;10622416;27;20054;-57
2021/03/04 23:47:27;;;;;;;2.35;0.90;;;17.70;61.10;;;;;;10589937;27;20045;-57
2021/03/04 23:52:28;;;;;;;1.30;0.52;;;17.70;61.00;;;;;;10606439;27;20031;-57
2021/03/04 23:57:29;;;;;;;3.33;1.38;;;17.70;61.00;;;;;;10619322;27;20121;-57
